Gouwestroom — PDGR — position and weather

sailwx.info

Track history (hours):
 
Tides and Currents Weather Stations Pressure Air Temp Water Temp Dewpoint Dewpoint Depression Visibility Wind Speed Wind Dir Waves Ship Positions

Gouwestroom

Last reported at 2018-Feb-23 06:29 UTC. Time now 2018-Feb-23 06:42 UTC.
Position N 51°49' E 004°53'.

Length 20 m; draft 2.4 m.

Type: Tug. MMSI: 246166000.

Date/timePositionNaut miles runAvg speedWind from/ knotsBaromVisibWave heightAir tempDewpointWater temp
2018-Feb-23 06:29N 51°49' E 004°53'0 0.0
2018-Feb-23 05:59N 51°49' E 004°53'0 0.0
2018-Feb-23 05:29N 51°49' E 004°53'0 0.0
2018-Feb-23 04:59N 51°49' E 004°53'0 0.0
2018-Feb-23 04:29N 51°49' E 004°53'0 0.0
2018-Feb-23 03:59N 51°49' E 004°53'0 0.0
2018-Feb-23 03:29N 51°49' E 004°53'0 0.0
2018-Feb-23 02:59N 51°49' E 004°53'0 0.0
2018-Feb-23 02:29N 51°49' E 004°53'0 0.0
2018-Feb-23 01:59N 51°49' E 004°53'0 0.0
2018-Feb-23 01:29N 51°49' E 004°53'0 0.0
2018-Feb-23 00:56N 51°49' E 004°53'0 0.0
2018-Feb-23 00:29N 51°49' E 004°53'0 0.0
2018-Feb-22 23:56N 51°49' E 004°53'0 0.0
2018-Feb-22 23:29N 51°49' E 004°53'0 0.0
2018-Feb-22 22:59N 51°49' E 004°53'0 0.0
2018-Feb-22 22:29N 51°49' E 004°53'0 0.0
2018-Feb-22 21:59N 51°49' E 004°53'0 0.0
2018-Feb-22 21:29N 51°49' E 004°53'0 0.0
2018-Feb-22 20:56N 51°49' E 004°53'0 0.0
2018-Feb-22 20:29N 51°49' E 004°53'0 0.0
2018-Feb-22 19:59N 51°49' E 004°53'0 0.0
2018-Feb-22 19:29N 51°49' E 004°53'0 0.0
2018-Feb-22 18:53N 51°49' E 004°53'0 0.0
2018-Feb-22 18:29N 51°49' E 004°53'0 0.0
2018-Feb-22 17:59N 51°49' E 004°53'0 0.0
2018-Feb-22 17:29N 51°49' E 004°53'0 0.0
2018-Feb-22 16:59N 51°49' E 004°53'0 0.0
2018-Feb-22 16:29N 51°49' E 004°53'0 0.0
2018-Feb-22 15:59N 51°49' E 004°53'0 0.0
2018-Feb-22 15:26N 51°49' E 004°53'0 0.0
2018-Feb-22 14:59N 51°49' E 004°53'0 0.0
2018-Feb-22 14:29N 51°49' E 004°53'0 0.0
2018-Feb-22 13:59N 51°49' E 004°53'0 0.0
2018-Feb-22 13:29N 51°49' E 004°53'2 4.9
2018-Feb-22 13:00N 51°49' E 004°49'3 6.4
2018-Feb-22 12:31N 51°49' E 004°44'1 1.2
2018-Feb-22 12:00N 51°49' E 004°43'1 2.2
2018-Feb-22 11:30N 51°49' E 004°41'2 3.8
2018-Feb-22 11:00N 51°51' E 004°40'1 0.8
2018-Feb-22 10:21N 51°51' E 004°39'0 0.1
2018-Feb-22 09:57N 51°51' E 004°39'0 0.1
2018-Feb-22 09:30N 51°51' E 004°39'2 3.5
2018-Feb-22 09:00N 51°53' E 004°38'2 5.0
2018-Feb-22 08:30N 51°54' E 004°34'0 0.9
2018-Feb-22 07:59N 51°55' E 004°34'0 0.7
2018-Feb-22 07:30N 51°54' E 004°34'4 7.2
2018-Feb-22 07:00N 51°52' E 004°38'3 6.7
2018-Feb-22 06:31N 51°49' E 004°42'4 8.0
2018-Feb-22 06:00N 51°49' E 004°48'3 5.1
2018-Feb-22 05:27N 51°49' E 004°53'0 0.0
2018-Feb-22 05:00N 51°49' E 004°53'0 0.0
2018-Feb-22 04:30N 51°49' E 004°53'0 0.0
2018-Feb-22 04:00N 51°49' E 004°53'0 0.0
2018-Feb-22 03:30N 51°49' E 004°53'0 0.0
2018-Feb-22 02:57N 51°49' E 004°53'0 0.0
2018-Feb-22 02:30N 51°49' E 004°53'0 0.0
2018-Feb-22 02:00N 51°49' E 004°53'0 0.0
2018-Feb-22 01:30N 51°49' E 004°53'0 0.0
2018-Feb-22 01:00N 51°49' E 004°53'0 0.0
2018-Feb-22 00:30N 51°49' E 004°53'0 0.0
2018-Feb-22 00:00N 51°49' E 004°53'0 0.0
2018-Feb-21 23:27N 51°49' E 004°53'0 0.0
2018-Feb-21 23:00N 51°49' E 004°53'0 0.0
2018-Feb-21 22:30N 51°49' E 004°53'0 0.0
2018-Feb-21 22:00N 51°49' E 004°53'0 0.0
2018-Feb-21 21:30N 51°49' E 004°53'0 0.0
2018-Feb-21 21:00N 51°49' E 004°53'0 0.0
2018-Feb-21 20:27N 51°49' E 004°53'0 0.0
2018-Feb-21 20:00N 51°49' E 004°53'0 0.0
2018-Feb-21 19:30N 51°49' E 004°53'0 0.0
2018-Feb-21 19:00N 51°49' E 004°53'0 0.0
2018-Feb-21 18:27N 51°49' E 004°53'0 0.0
2018-Feb-21 18:00N 51°49' E 004°53'0 0.0
2018-Feb-21 17:30N 51°49' E 004°53'0 0.0
2018-Feb-21 17:00N 51°49' E 004°53'0 0.0
2018-Feb-21 16:27N 51°49' E 004°53'0 0.0
2018-Feb-21 16:00N 51°49' E 004°53'0 0.0
2018-Feb-21 15:30N 51°49' E 004°53'0 0.0
2018-Feb-21 15:00N 51°49' E 004°53'0 0.0
2018-Feb-21 14:30N 51°49' E 004°53'0 0.0
2018-Feb-21 14:00N 51°49' E 004°53'0 0.0
2018-Feb-21 13:27N 51°49' E 004°53'0 0.0
2018-Feb-21 12:57N 51°49' E 004°53'0 0.0
2018-Feb-21 12:24N 51°49' E 004°53'0 0.0
2018-Feb-21 12:00N 51°49' E 004°53'0 0.0
2018-Feb-21 11:30N 51°49' E 004°53'0 0.0
2018-Feb-21 10:57N 51°49' E 004°53'0 0.0
2018-Feb-21 10:27N 51°49' E 004°53'0 0.0
2018-Feb-21 10:00N 51°49' E 004°53'0 0.0
2018-Feb-21 09:30N 51°49' E 004°53'0 0.0
2018-Feb-21 09:00N 51°49' E 004°53'0 0.0
2018-Feb-21 08:30N 51°49' E 004°53'0 0.0
2018-Feb-21 08:00N 51°49' E 004°53'0 0.0
2018-Feb-21 07:30N 51°49' E 004°53'0 0.0
2018-Feb-21 07:00N 51°49' E 004°53'0 0.0
2018-Feb-21 06:30N 51°49' E 004°53'0 0.0
2018-Feb-21 05:57N 51°49' E 004°53'0 0.0
2018-Feb-21 05:27N 51°49' E 004°53'0 0.0
2018-Feb-21 04:57N 51°49' E 004°53'0 0.0
2018-Feb-21 04:30N 51°49' E 004°53'0 0.0
2018-Feb-21 04:00N 51°49' E 004°53'0 0.0
2018-Feb-21 03:30N 51°49' E 004°53'0 0.0
2018-Feb-21 03:00N 51°49' E 004°53'0 0.0
2018-Feb-21 02:30N 51°49' E 004°53'0 0.0
2018-Feb-21 01:57N 51°49' E 004°53'0 0.0
2018-Feb-21 01:30N 51°49' E 004°53'0 0.0
2018-Feb-21 01:00N 51°49' E 004°53'0 0.0
2018-Feb-21 00:30N 51°49' E 004°53'0 0.0
2018-Feb-21 00:00N 51°49' E 004°53'0 0.0
2018-Feb-20 23:30N 51°49' E 004°53'0 0.0
2018-Feb-20 23:00N 51°49' E 004°53'0 0.0
2018-Feb-20 22:30N 51°49' E 004°53'0 0.0
2018-Feb-20 22:00N 51°49' E 004°53'0 0.0
2018-Feb-20 21:30N 51°49' E 004°53'0 0.0
2018-Feb-20 20:57N 51°49' E 004°53'0 0.0
2018-Feb-20 20:30N 51°49' E 004°53'0 0.0
2018-Feb-20 20:00N 51°49' E 004°53'0 0.0
2018-Feb-20 19:30N 51°49' E 004°53'0 0.0
2018-Feb-20 19:00N 51°49' E 004°53'0 0.9
2018-Feb-20 18:28N 51°49' E 004°52'0 0.1
2018-Feb-20 17:58N 51°49' E 004°52'0 0.9
2018-Feb-20 17:30N 51°49' E 004°53'0 0.0
2018-Feb-20 16:54N 51°49' E 004°53'0 0.0
2018-Feb-20 16:30N 51°49' E 004°53'0 0.0
2018-Feb-20 15:57N 51°49' E 004°53'0 0.0
2018-Feb-20 15:30N 51°49' E 004°53'0 0.0
2018-Feb-20 15:00N 51°49' E 004°53'0 0.0
2018-Feb-20 14:27N 51°49' E 004°53'0 0.0
2018-Feb-20 14:00N 51°49' E 004°53'0 0.0
2018-Feb-20 13:30N 51°49' E 004°53'0 0.8
2018-Feb-20 12:59N 51°49' E 004°52'0 0.0
2018-Feb-20 12:29N 51°49' E 004°52'0 0.0
2018-Feb-20 11:59N 51°49' E 004°52'0 0.6
2018-Feb-20 11:26N 51°49' E 004°51'0 0.6
2018-Feb-20 11:00N 51°49' E 004°52'1 0.9
2018-Feb-20 10:25N 51°49' E 004°53'0 0.0
2018-Feb-20 09:58N 51°49' E 004°53'0 0.0
2018-Feb-20 09:28N 51°49' E 004°53'0 0.0
2018-Feb-20 08:58N 51°49' E 004°53'0 0.0
2018-Feb-20 08:28N 51°49' E 004°53'0 0.0
2018-Feb-20 07:58N 51°49' E 004°53'0 0.0
2018-Feb-20 07:28N 51°49' E 004°53'0 0.0
2018-Feb-20 06:55N 51°49' E 004°53'0 0.0
2018-Feb-20 06:28N 51°49' E 004°53'0 0.0
2018-Feb-20 05:55N 51°49' E 004°53'0 0.0
2018-Feb-20 05:25N 51°49' E 004°53'0 0.0
2018-Feb-20 04:58N 51°49' E 004°53'0 0.0
2018-Feb-20 04:28N 51°49' E 004°53'0 0.0
2018-Feb-20 03:58N 51°49' E 004°53'0 0.0
2018-Feb-20 03:28N 51°49' E 004°53'0 0.0
2018-Feb-20 02:58N 51°49' E 004°53'0 0.0
2018-Feb-20 02:25N 51°49' E 004°53'0 0.0
2018-Feb-20 01:58N 51°49' E 004°53'0 0.0
2018-Feb-20 01:28N 51°49' E 004°53'0 0.0
2018-Feb-20 00:58N 51°49' E 004°53'0 0.0
2018-Feb-20 00:28N 51°49' E 004°53'0 0.0
2018-Feb-19 23:58N 51°49' E 004°53'0 0.0
2018-Feb-19 23:25N 51°49' E 004°53'0 0.0
2018-Feb-19 22:58N 51°49' E 004°53'0 0.0
2018-Feb-19 22:28N 51°49' E 004°53'0 0.0
2018-Feb-19 21:58N 51°49' E 004°53'0 0.0
2018-Feb-19 21:25N 51°49' E 004°53'0 0.0
2018-Feb-19 20:58N 51°49' E 004°53'0 0.0
2018-Feb-19 20:28N 51°49' E 004°53'0 0.0
2018-Feb-19 19:58N 51°49' E 004°53'0 0.0
2018-Feb-19 19:28N 51°49' E 004°53'0 0.0
2018-Feb-19 18:58N 51°49' E 004°53'0 0.0
2018-Feb-19 18:28N 51°49' E 004°53'0 0.0
2018-Feb-19 17:58N 51°49' E 004°53'0 0.0
2018-Feb-19 17:28N 51°49' E 004°53'0 0.0
2018-Feb-19 16:52N 51°49' E 004°53'0 0.0
2018-Feb-19 16:28N 51°49' E 004°53'0 0.0
2018-Feb-19 15:58N 51°49' E 004°53'0 0.0
2018-Feb-19 15:28N 51°49' E 004°53'0 0.0
2018-Feb-19 14:58N 51°49' E 004°53'0 0.0
2018-Feb-19 14:28N 51°49' E 004°53'0 0.0
2018-Feb-19 13:58N 51°49' E 004°53'0 0.0
2018-Feb-19 13:28N 51°49' E 004°53'0 0.0
2018-Feb-19 12:58N 51°49' E 004°53'0 0.0
2018-Feb-19 12:28N 51°49' E 004°53'0 0.0
2018-Feb-19 11:58N 51°49' E 004°53'0 0.0
2018-Feb-19 11:28N 51°49' E 004°53'0 0.0
2018-Feb-19 10:58N 51°49' E 004°53'0 0.0
2018-Feb-19 10:28N 51°49' E 004°53'0 0.0
2018-Feb-19 09:55N 51°49' E 004°53'0 0.0
2018-Feb-19 09:28N 51°49' E 004°53'0 0.0
2018-Feb-19 08:58N 51°49' E 004°53'0 0.0
2018-Feb-19 08:25N 51°49' E 004°53'0 0.0
2018-Feb-19 07:58N 51°49' E 004°53'0 0.0
2018-Feb-19 07:28N 51°49' E 004°53'0 0.0
2018-Feb-19 06:55N 51°49' E 004°53'0 0.0
2018-Feb-19 06:25N 51°49' E 004°53'0 0.0
2018-Feb-19 05:58N 51°49' E 004°53'0 0.0
2018-Feb-19 05:25N 51°49' E 004°53'0 0.0
2018-Feb-19 04:58N 51°49' E 004°53'0 0.0
2018-Feb-19 04:28N 51°49' E 004°53'0 0.0
2018-Feb-19 03:58N 51°49' E 004°53'0 0.0
2018-Feb-19 03:28N 51°49' E 004°53'0 0.0
2018-Feb-19 02:58N 51°49' E 004°53'0 0.0
2018-Feb-19 02:28N 51°49' E 004°53'0 0.0
2018-Feb-19 01:58N 51°49' E 004°53'0 0.0
2018-Feb-19 01:28N 51°49' E 004°53'0 0.0
2018-Feb-19 00:58N 51°49' E 004°53'0 0.0
2018-Feb-19 00:22N 51°49' E 004°53'0 0.0
2018-Feb-18 23:58N 51°49' E 004°53'0 0.0
2018-Feb-18 23:28N 51°49' E 004°53'0 0.0
2018-Feb-18 22:55N 51°49' E 004°53'0 0.0
2018-Feb-18 22:28N 51°49' E 004°53'0 0.0
2018-Feb-18 21:58N 51°49' E 004°53'0 0.0
2018-Feb-18 21:28N 51°49' E 004°53'0 0.0
2018-Feb-18 20:58N 51°49' E 004°53'0 0.0
2018-Feb-18 20:28N 51°49' E 004°53'0 0.0
2018-Feb-18 19:58N 51°49' E 004°53'0 0.0
2018-Feb-18 19:28N 51°49' E 004°53'0 0.0
2018-Feb-18 18:58N 51°49' E 004°53'0 0.0
2018-Feb-18 18:28N 51°49' E 004°53'0 0.0
2018-Feb-18 17:58N 51°49' E 004°53'0 0.0
2018-Feb-18 17:28N 51°49' E 004°53'0 0.0
2018-Feb-18 16:58N 51°49' E 004°53'0 0.0
2018-Feb-18 16:25N 51°49' E 004°53'0 0.0
2018-Feb-18 15:58N 51°49' E 004°53'0 0.0
2018-Feb-18 15:28N 51°49' E 004°53'0 0.0
2018-Feb-18 14:58N 51°49' E 004°53'0 0.0
2018-Feb-18 14:28N 51°49' E 004°53'0 0.0
2018-Feb-18 13:58N 51°49' E 004°53'0 0.0
2018-Feb-18 13:28N 51°49' E 004°53'0 0.0
2018-Feb-18 12:58N 51°49' E 004°53'0 0.0
2018-Feb-18 12:28N 51°49' E 004°53'0 0.0
2018-Feb-18 11:52N 51°49' E 004°53'0 0.0
2018-Feb-18 11:28N 51°49' E 004°53'0 0.0
2018-Feb-18 10:58N 51°49' E 004°53'0 0.0
2018-Feb-18 10:28N 51°49' E 004°53'0 0.0
2018-Feb-18 09:58N 51°49' E 004°53'0 0.0
2018-Feb-18 09:28N 51°49' E 004°53'0 0.0
2018-Feb-18 08:58N 51°49' E 004°53'0 0.0
2018-Feb-18 08:28N 51°49' E 004°53'0 0.0
2018-Feb-18 07:58N 51°49' E 004°53'0 0.0
2018-Feb-18 07:25N 51°49' E 004°53'0 0.0
2018-Feb-18 06:58N 51°49' E 004°53'0 0.0
2018-Feb-18 06:28N 51°49' E 004°53'0 0.0
2018-Feb-18 05:58N 51°49' E 004°53'0 0.0
2018-Feb-18 05:28N 51°49' E 004°53'0 0.0
2018-Feb-18 04:58N 51°49' E 004°53'0 0.0
2018-Feb-18 04:28N 51°49' E 004°53'0 0.0
2018-Feb-18 03:58N 51°49' E 004°53'0 0.0
2018-Feb-18 03:25N 51°49' E 004°53'0 0.0
2018-Feb-18 02:58N 51°49' E 004°53'0 0.0
2018-Feb-18 02:28N 51°49' E 004°53'0 0.0
2018-Feb-18 01:58N 51°49' E 004°53'0 0.0
2018-Feb-18 01:28N 51°49' E 004°53'0 0.0
2018-Feb-18 00:58N 51°49' E 004°53'0 0.0
2018-Feb-18 00:28N 51°49' E 004°53'0 0.0
2018-Feb-17 23:58N 51°49' E 004°53'0 0.0
2018-Feb-17 23:28N 51°49' E 004°53'0 0.0
2018-Feb-17 22:58N 51°49' E 004°53'0 0.0
2018-Feb-17 22:28N 51°49' E 004°53'0 0.0
2018-Feb-17 21:58N 51°49' E 004°53'0 0.0
2018-Feb-17 21:28N 51°49' E 004°53'0 0.0
2018-Feb-17 20:58N 51°49' E 004°53'0 0.0
2018-Feb-17 20:28N 51°49' E 004°53'0 0.0
2018-Feb-17 19:58N 51°49' E 004°53'0 0.0
2018-Feb-17 19:28N 51°49' E 004°53'0 0.0
2018-Feb-17 18:58N 51°49' E 004°53'0 0.0
2018-Feb-17 18:22N 51°49' E 004°53'0 0.0
2018-Feb-17 17:58N 51°49' E 004°53'0 0.0
2018-Feb-17 17:28N 51°49' E 004°53'0 0.0
2018-Feb-17 16:58N 51°49' E 004°53'0 0.0
2018-Feb-17 16:28N 51°49' E 004°53'0 0.0
2018-Feb-17 15:58N 51°49' E 004°53'0 0.0
2018-Feb-17 15:28N 51°49' E 004°53'0 0.0
2018-Feb-17 14:58N 51°49' E 004°53'0 0.0
2018-Feb-17 14:25N 51°49' E 004°53'0 0.0
2018-Feb-17 13:58N 51°49' E 004°53'0 0.0
2018-Feb-17 13:28N 51°49' E 004°53'0 0.0
2018-Feb-17 12:58N 51°49' E 004°53'0 0.0
2018-Feb-17 12:28N 51°49' E 004°53'0 0.0
2018-Feb-17 11:58N 51°49' E 004°53'0 0.0
2018-Feb-17 11:28N 51°49' E 004°53'0 0.0
2018-Feb-17 10:58N 51°49' E 004°53'0 0.0
2018-Feb-17 10:22N 51°49' E 004°53'0 0.0
2018-Feb-17 09:58N 51°49' E 004°53'0 0.0
2018-Feb-17 09:28N 51°49' E 004°53'0 0.0
2018-Feb-17 08:58N 51°49' E 004°53'0 0.0
2018-Feb-17 08:28N 51°49' E 004°53'0 0.0
2018-Feb-17 07:58N 51°49' E 004°53'0 0.0
2018-Feb-17 07:28N 51°49' E 004°53'0 0.0
2018-Feb-17 06:58N 51°49' E 004°53'0 0.0
2018-Feb-17 06:28N 51°49' E 004°53'0 0.0
2018-Feb-17 05:58N 51°49' E 004°53'0 0.0
2018-Feb-17 05:28N 51°49' E 004°53'0 0.0
2018-Feb-17 04:58N 51°49' E 004°53'0 0.0
2018-Feb-17 04:28N 51°49' E 004°53'0 0.0
2018-Feb-17 03:58N 51°49' E 004°53'0 0.0
2018-Feb-17 03:28N 51°49' E 004°53'0 0.0
2018-Feb-17 02:58N 51°49' E 004°53'0 0.0
2018-Feb-17 02:28N 51°49' E 004°53'0 0.0
2018-Feb-17 01:58N 51°49' E 004°53'0 0.0
2018-Feb-17 01:28N 51°49' E 004°53'0 0.0
2018-Feb-17 00:58N 51°49' E 004°53'0 0.0
2018-Feb-17 00:28N 51°49' E 004°53'0 0.0
2018-Feb-16 23:58N 51°49' E 004°53'0 0.0
2018-Feb-16 23:28N 51°49' E 004°53'0 0.0
2018-Feb-16 22:58N 51°49' E 004°53'0 0.0
2018-Feb-16 22:28N 51°49' E 004°53'0 0.0
2018-Feb-16 21:58N 51°49' E 004°53'0 0.0
2018-Feb-16 21:28N 51°49' E 004°53'0 0.0
2018-Feb-16 20:58N 51°49' E 004°53'0 0.0
2018-Feb-16 20:28N 51°49' E 004°53'0 0.0
2018-Feb-16 19:58N 51°49' E 004°53'0 0.0
2018-Feb-16 19:28N 51°49' E 004°53'0 0.0
2018-Feb-16 18:58N 51°49' E 004°53'0 0.0
2018-Feb-16 18:28N 51°49' E 004°53'0 0.0
2018-Feb-16 17:55N 51°49' E 004°53'0 0.0
2018-Feb-16 17:25N 51°49' E 004°53'0 0.0
2018-Feb-16 16:58N 51°49' E 004°53'0 0.0
2018-Feb-16 16:22N 51°49' E 004°53'0 0.0
2018-Feb-16 15:58N 51°49' E 004°53'0 0.0
2018-Feb-16 15:28N 51°49' E 004°53'0 0.0
2018-Feb-16 14:58N 51°49' E 004°53'0 0.0
2018-Feb-16 14:28N 51°49' E 004°53'0 0.0
2018-Feb-16 13:58N 51°49' E 004°53'0 0.0
2018-Feb-16 13:28N 51°49' E 004°53'0 0.0
2018-Feb-16 12:58N 51°49' E 004°53'0 0.0
2018-Feb-16 12:25N 51°49' E 004°53'0 0.0
2018-Feb-16 11:58N 51°49' E 004°53'0 0.0
2018-Feb-16 11:28N 51°49' E 004°53'0 0.0
2018-Feb-16 10:58N 51°49' E 004°53'0 0.0
2018-Feb-16 10:28N 51°49' E 004°53'0 0.0
2018-Feb-16 09:58N 51°49' E 004°53'0 0.0
2018-Feb-16 09:25N 51°49' E 004°53'0 0.0
2018-Feb-16 08:58N 51°49' E 004°53'0 0.0
2018-Feb-16 08:28N 51°49' E 004°53'0 0.0
2018-Feb-16 07:58N 51°49' E 004°53'0 0.0
2018-Feb-16 07:25N 51°49' E 004°53'0 0.0
2018-Feb-16 06:58N 51°49' E 004°53'0 0.0
2018-Feb-16 06:28N 51°49' E 004°53'0 0.0
2018-Feb-16 05:58N 51°49' E 004°53'0 0.0
2018-Feb-16 05:28N 51°49' E 004°53'0 0.0
2018-Feb-16 04:55N 51°49' E 004°53'0 0.0
2018-Feb-16 04:25N 51°49' E 004°53'0 0.0
2018-Feb-16 03:58N 51°49' E 004°53'0 0.0
2018-Feb-16 03:28N 51°49' E 004°53'0 0.0
2018-Feb-16 02:55N 51°49' E 004°53'0 0.0
2018-Feb-16 02:28N 51°49' E 004°53'0 0.0
2018-Feb-16 01:58N 51°49' E 004°53'0 0.0
2018-Feb-16 01:28N 51°49' E 004°53'0 0.0
2018-Feb-16 00:58N 51°49' E 004°53'0 0.0
2018-Feb-16 00:22N 51°49' E 004°53'0 0.0
2018-Feb-15 23:58N 51°49' E 004°53'0 0.0
2018-Feb-15 23:28N 51°49' E 004°53'0 0.0
2018-Feb-15 22:58N 51°49' E 004°53'0 0.0
2018-Feb-15 22:25N 51°49' E 004°53'0 0.0
2018-Feb-15 21:58N 51°49' E 004°53'0 0.0
2018-Feb-15 21:25N 51°49' E 004°53'0 0.0
2018-Feb-15 20:58N 51°49' E 004°53'0 0.0
2018-Feb-15 20:25N 51°49' E 004°53'0 0.0
2018-Feb-15 19:58N 51°49' E 004°53'0 0.0
2018-Feb-15 19:28N 51°49' E 004°53'0 0.0
2018-Feb-15 18:58N 51°49' E 004°53'0 0.0
2018-Feb-15 18:28N 51°49' E 004°53'0 0.0
2018-Feb-15 17:58N 51°49' E 004°53'0 0.0
2018-Feb-15 17:25N 51°49' E 004°53'0 0.0
2018-Feb-15 16:55N 51°49' E 004°53'0 0.0
2018-Feb-15 16:28N 51°49' E 004°53'0 0.0
2018-Feb-15 15:58N 51°49' E 004°53'0 0.0
2018-Feb-15 15:28N 51°49' E 004°53'0 0.0
2018-Feb-15 14:58N 51°49' E 004°53'0 0.0
2018-Feb-15 14:28N 51°49' E 004°53'0 0.0
2018-Feb-15 13:52N 51°49' E 004°53'0 0.0
2018-Feb-15 13:25N 51°49' E 004°53'0 0.0
2018-Feb-15 12:58N 51°49' E 004°53'0 0.0
2018-Feb-15 12:28N 51°49' E 004°53'0 0.0
2018-Feb-15 11:58N 51°49' E 004°53'0 0.0
2018-Feb-15 11:28N 51°49' E 004°53'0 0.0
2018-Feb-15 10:58N 51°49' E 004°53'0 0.0
2018-Feb-15 10:25N 51°49' E 004°53'0 0.0
2018-Feb-15 09:58N 51°49' E 004°53'0 0.0
2018-Feb-15 09:28N 51°49' E 004°53'0 0.0
2018-Feb-15 08:55N 51°49' E 004°53'0 0.0
2018-Feb-15 08:28N 51°49' E 004°53'0 0.0
2018-Feb-15 07:58N 51°49' E 004°53'0 0.0
2018-Feb-15 07:25N 51°49' E 004°53'0 0.0
2018-Feb-15 06:55N 51°49' E 004°53'0 0.0
2018-Feb-15 06:25N 51°49' E 004°53'0 0.0
2018-Feb-15 05:55N 51°49' E 004°53'0 0.0
2018-Feb-15 05:28N 51°49' E 004°53'0 0.0
2018-Feb-15 04:58N 51°49' E 004°53'0 0.0
2018-Feb-15 04:25N 51°49' E 004°53'0 0.0
2018-Feb-15 03:55N 51°49' E 004°53'0 0.0
2018-Feb-15 03:31N 51°49' E 004°53'0 0.0
2018-Feb-15 02:58N 51°49' E 004°53'0 0.0
2018-Feb-15 02:31N 51°49' E 004°53'0 0.0
2018-Feb-15 01:58N 51°49' E 004°53'0 0.0
2018-Feb-15 01:28N 51°49' E 004°53'0 0.0
2018-Feb-15 00:58N 51°49' E 004°53'0 0.0
2018-Feb-15 00:28N 51°49' E 004°53'0 0.0
2018-Feb-14 23:58N 51°49' E 004°53'0 0.0
2018-Feb-14 23:28N 51°49' E 004°53'0 0.0
2018-Feb-14 22:58N 51°49' E 004°53'0 0.0
2018-Feb-14 22:28N 51°49' E 004°53'0 0.0
2018-Feb-14 21:58N 51°49' E 004°53'0 0.0
2018-Feb-14 21:28N 51°49' E 004°53'0 0.0
2018-Feb-14 20:58N 51°49' E 004°53'0 0.0
2018-Feb-14 20:31N 51°49' E 004°53'0 0.0
2018-Feb-14 19:58N 51°49' E 004°53'0 0.0
2018-Feb-14 19:28N 51°49' E 004°53'0 0.0
2018-Feb-14 18:55N 51°49' E 004°53'0 0.0
2018-Feb-14 18:28N 51°49' E 004°53'0 0.0
2018-Feb-14 17:58N 51°49' E 004°53'0 0.0
2018-Feb-14 17:25N 51°49' E 004°53'0 0.0
2018-Feb-14 16:58N 51°49' E 004°53'0 0.0
2018-Feb-14 16:28N 51°49' E 004°53'0 0.0
2018-Feb-14 16:01N 51°49' E 004°53'0 0.0
2018-Feb-14 15:31N 51°49' E 004°53'0 0.0
2018-Feb-14 15:01N 51°49' E 004°53'0 0.0
2018-Feb-14 14:31N 51°49' E 004°53'0 0.0
2018-Feb-14 14:01N 51°49' E 004°53'0 0.0
2018-Feb-14 13:31N 51°49' E 004°53'0 0.0
2018-Feb-14 12:58N 51°49' E 004°53'0 0.0
2018-Feb-14 12:31N 51°49' E 004°53'0 0.0
2018-Feb-14 11:58N 51°49' E 004°53'0 0.0
2018-Feb-14 11:31N 51°49' E 004°53'0 0.0
2018-Feb-14 11:01N 51°49' E 004°53'0 0.0
2018-Feb-14 10:31N 51°49' E 004°53'0 0.0
2018-Feb-14 10:01N 51°49' E 004°53'0 0.0
2018-Feb-14 09:28N 51°49' E 004°53'0 0.0
2018-Feb-14 09:01N 51°49' E 004°53'0 0.0
2018-Feb-14 08:28N 51°49' E 004°53'0 0.0
2018-Feb-14 08:01N 51°49' E 004°53'0 0.0
2018-Feb-14 07:31N 51°49' E 004°53'0 0.0
2018-Feb-14 07:01N 51°49' E 004°53'0 0.0
2018-Feb-14 06:31N 51°49' E 004°53'0 0.0
2018-Feb-14 06:01N 51°49' E 004°53'0 0.0
2018-Feb-14 05:28N 51°49' E 004°53'0 0.0
2018-Feb-14 05:01N 51°49' E 004°53'0 0.0
2018-Feb-14 04:28N 51°49' E 004°53'0 0.0
2018-Feb-14 03:58N 51°49' E 004°53'0 0.0
2018-Feb-14 03:31N 51°49' E 004°53'0 0.0
2018-Feb-14 02:58N 51°49' E 004°53'0 0.0
2018-Feb-14 02:31N 51°49' E 004°53'0 0.0
2018-Feb-14 01:55N 51°49' E 004°53'0 0.0
2018-Feb-14 01:31N 51°49' E 004°53'0 0.0
2018-Feb-14 00:55N 51°49' E 004°53'0 0.0
2018-Feb-14 00:31N 51°49' E 004°53'0 0.0
2018-Feb-14 00:00N 51°49' E 004°53'0 0.0
2018-Feb-13 23:30N 51°49' E 004°53'0 0.0
2018-Feb-13 23:01N 51°49' E 004°53'0 0.0
2018-Feb-13 22:31N 51°49' E 004°53'0 0.0
2018-Feb-13 22:01N 51°49' E 004°53'0 0.0
2018-Feb-13 21:30N 51°49' E 004°53'0 0.0
2018-Feb-13 21:00N 51°49' E 004°53'0 0.0
2018-Feb-13 20:30N 51°49' E 004°53'0 0.0
2018-Feb-13 20:01N 51°49' E 004°53'0 0.0
2018-Feb-13 19:31N 51°49' E 004°53'0 0.0
2018-Feb-13 19:01N 51°49' E 004°53'0 0.0
2018-Feb-13 18:30N 51°49' E 004°53'0 0.0
2018-Feb-13 17:58N 51°49' E 004°53'0 0.0
2018-Feb-13 17:27N 51°49' E 004°53'0 0.0
2018-Feb-13 16:58N 51°49' E 004°53'0 0.0
2018-Feb-13 16:30N 51°49' E 004°53'0 0.0
2018-Feb-13 15:58N 51°49' E 004°53'0 0.0
2018-Feb-13 15:30N 51°49' E 004°53'0 0.0
2018-Feb-13 15:01N 51°49' E 004°53'0 0.0
2018-Feb-13 14:30N 51°49' E 004°53'0 0.0
2018-Feb-13 13:57N 51°49' E 004°53'0 0.0
2018-Feb-13 13:30N 51°49' E 004°53'0 0.0
2018-Feb-13 13:00N 51°49' E 004°53'0 0.0
2018-Feb-13 12:30N 51°49' E 004°53'0 0.0
2018-Feb-13 12:00N 51°49' E 004°53'0 0.0
2018-Feb-13 11:30N 51°49' E 004°53'0 0.0
2018-Feb-13 10:57N 51°49' E 004°53'0 0.0
2018-Feb-13 10:31N 51°49' E 004°53'0 0.0
2018-Feb-13 10:01N 51°49' E 004°53'0 0.0
2018-Feb-13 09:31N 51°49' E 004°53'0 0.0
2018-Feb-13 09:00N 51°49' E 004°53'0 0.0
2018-Feb-13 08:30N 51°49' E 004°53'0 0.0
2018-Feb-13 08:00N 51°49' E 004°53'0 0.0
2018-Feb-13 07:27N 51°49' E 004°53'0 0.0
2018-Feb-13 06:57N 51°49' E 004°53'0 0.0
2018-Feb-13 06:30N 51°49' E 004°53'  
Track history (hours):
 
Tides and Currents Weather Stations Pressure Air Temp Water Temp Dewpoint Dewpoint Depression Visibility Wind Speed Wind Dir Waves Ship Positions

Gouwestroom

Last reported at 2018-Feb-23 06:29 UTC. Time now 2018-Feb-23 06:42 UTC.
Position N 51°49' E 004°53'.

Length 20 m; draft 2.4 m.

Type: Tug. MMSI: 246166000.

Date/timePositionNaut miles runAvg speedWind from/ knotsBaromVisibWave heightAir tempDewpointWater temp
2018-Feb-23 06:29N 51°49' E 004°53'0 0.0
2018-Feb-23 05:59N 51°49' E 004°53'0 0.0
2018-Feb-23 05:29N 51°49' E 004°53'0 0.0
2018-Feb-23 04:59N 51°49' E 004°53'0 0.0
2018-Feb-23 04:29N 51°49' E 004°53'0 0.0
2018-Feb-23 03:59N 51°49' E 004°53'0 0.0
2018-Feb-23 03:29N 51°49' E 004°53'0 0.0
2018-Feb-23 02:59N 51°49' E 004°53'0 0.0
2018-Feb-23 02:29N 51°49' E 004°53'0 0.0
2018-Feb-23 01:59N 51°49' E 004°53'0 0.0
2018-Feb-23 01:29N 51°49' E 004°53'0 0.0
2018-Feb-23 00:56N 51°49' E 004°53'0 0.0
2018-Feb-23 00:29N 51°49' E 004°53'0 0.0
2018-Feb-22 23:56N 51°49' E 004°53'0 0.0
2018-Feb-22 23:29N 51°49' E 004°53'0 0.0
2018-Feb-22 22:59N 51°49' E 004°53'0 0.0
2018-Feb-22 22:29N 51°49' E 004°53'0 0.0
2018-Feb-22 21:59N 51°49' E 004°53'0 0.0
2018-Feb-22 21:29N 51°49' E 004°53'0 0.0
2018-Feb-22 20:56N 51°49' E 004°53'0 0.0
2018-Feb-22 20:29N 51°49' E 004°53'0 0.0
2018-Feb-22 19:59N 51°49' E 004°53'0 0.0
2018-Feb-22 19:29N 51°49' E 004°53'0 0.0
2018-Feb-22 18:53N 51°49' E 004°53'0 0.0
2018-Feb-22 18:29N 51°49' E 004°53'0 0.0
2018-Feb-22 17:59N 51°49' E 004°53'0 0.0
2018-Feb-22 17:29N 51°49' E 004°53'0 0.0
2018-Feb-22 16:59N 51°49' E 004°53'0 0.0
2018-Feb-22 16:29N 51°49' E 004°53'0 0.0
2018-Feb-22 15:59N 51°49' E 004°53'0 0.0
2018-Feb-22 15:26N 51°49' E 004°53'0 0.0
2018-Feb-22 14:59N 51°49' E 004°53'0 0.0
2018-Feb-22 14:29N 51°49' E 004°53'0 0.0
2018-Feb-22 13:59N 51°49' E 004°53'0 0.0
2018-Feb-22 13:29N 51°49' E 004°53'2 4.9
2018-Feb-22 13:00N 51°49' E 004°49'3 6.4
2018-Feb-22 12:31N 51°49' E 004°44'1 1.2
2018-Feb-22 12:00N 51°49' E 004°43'1 2.2
2018-Feb-22 11:30N 51°49' E 004°41'2 3.8
2018-Feb-22 11:00N 51°51' E 004°40'1 0.8
2018-Feb-22 10:21N 51°51' E 004°39'0 0.1
2018-Feb-22 09:57N 51°51' E 004°39'0 0.1
2018-Feb-22 09:30N 51°51' E 004°39'2 3.5
2018-Feb-22 09:00N 51°53' E 004°38'2 5.0
2018-Feb-22 08:30N 51°54' E 004°34'0 0.9
2018-Feb-22 07:59N 51°55' E 004°34'0 0.7
2018-Feb-22 07:30N 51°54' E 004°34'4 7.2
2018-Feb-22 07:00N 51°52' E 004°38'3 6.7
2018-Feb-22 06:31N 51°49' E 004°42'4 8.0
2018-Feb-22 06:00N 51°49' E 004°48'3 5.1
2018-Feb-22 05:27N 51°49' E 004°53'0 0.0
2018-Feb-22 05:00N 51°49' E 004°53'0 0.0
2018-Feb-22 04:30N 51°49' E 004°53'0 0.0
2018-Feb-22 04:00N 51°49' E 004°53'0 0.0
2018-Feb-22 03:30N 51°49' E 004°53'0 0.0
2018-Feb-22 02:57N 51°49' E 004°53'0 0.0
2018-Feb-22 02:30N 51°49' E 004°53'0 0.0
2018-Feb-22 02:00N 51°49' E 004°53'0 0.0
2018-Feb-22 01:30N 51°49' E 004°53'0 0.0
2018-Feb-22 01:00N 51°49' E 004°53'0 0.0
2018-Feb-22 00:30N 51°49' E 004°53'0 0.0
2018-Feb-22 00:00N 51°49' E 004°53'0 0.0
2018-Feb-21 23:27N 51°49' E 004°53'0 0.0
2018-Feb-21 23:00N 51°49' E 004°53'0 0.0
2018-Feb-21 22:30N 51°49' E 004°53'0 0.0
2018-Feb-21 22:00N 51°49' E 004°53'0 0.0
2018-Feb-21 21:30N 51°49' E 004°53'0 0.0
2018-Feb-21 21:00N 51°49' E 004°53'0 0.0
2018-Feb-21 20:27N 51°49' E 004°53'0 0.0
2018-Feb-21 20:00N 51°49' E 004°53'0 0.0
2018-Feb-21 19:30N 51°49' E 004°53'0 0.0
2018-Feb-21 19:00N 51°49' E 004°53'0 0.0
2018-Feb-21 18:27N 51°49' E 004°53'0 0.0
2018-Feb-21 18:00N 51°49' E 004°53'0 0.0
2018-Feb-21 17:30N 51°49' E 004°53'0 0.0
2018-Feb-21 17:00N 51°49' E 004°53'0 0.0
2018-Feb-21 16:27N 51°49' E 004°53'0 0.0
2018-Feb-21 16:00N 51°49' E 004°53'0 0.0
2018-Feb-21 15:30N 51°49' E 004°53'0 0.0
2018-Feb-21 15:00N 51°49' E 004°53'0 0.0
2018-Feb-21 14:30N 51°49' E 004°53'0 0.0
2018-Feb-21 14:00N 51°49' E 004°53'0 0.0
2018-Feb-21 13:27N 51°49' E 004°53'0 0.0
2018-Feb-21 12:57N 51°49' E 004°53'0 0.0
2018-Feb-21 12:24N 51°49' E 004°53'0 0.0
2018-Feb-21 12:00N 51°49' E 004°53'0 0.0
2018-Feb-21 11:30N 51°49' E 004°53'0 0.0
2018-Feb-21 10:57N 51°49' E 004°53'0 0.0
2018-Feb-21 10:27N 51°49' E 004°53'0 0.0
2018-Feb-21 10:00N 51°49' E 004°53'0 0.0
2018-Feb-21 09:30N 51°49' E 004°53'0 0.0
2018-Feb-21 09:00N 51°49' E 004°53'0 0.0
2018-Feb-21 08:30N 51°49' E 004°53'0 0.0
2018-Feb-21 08:00N 51°49' E 004°53'0 0.0
2018-Feb-21 07:30N 51°49' E 004°53'0 0.0
2018-Feb-21 07:00N 51°49' E 004°53'0 0.0
2018-Feb-21 06:30N 51°49' E 004°53'0 0.0
2018-Feb-21 05:57N 51°49' E 004°53'0 0.0
2018-Feb-21 05:27N 51°49' E 004°53'0 0.0
2018-Feb-21 04:57N 51°49' E 004°53'0 0.0
2018-Feb-21 04:30N 51°49' E 004°53'0 0.0
2018-Feb-21 04:00N 51°49' E 004°53'0 0.0
2018-Feb-21 03:30N 51°49' E 004°53'0 0.0
2018-Feb-21 03:00N 51°49' E 004°53'0 0.0
2018-Feb-21 02:30N 51°49' E 004°53'0 0.0
2018-Feb-21 01:57N 51°49' E 004°53'0 0.0
2018-Feb-21 01:30N 51°49' E 004°53'0 0.0
2018-Feb-21 01:00N 51°49' E 004°53'0 0.0
2018-Feb-21 00:30N 51°49' E 004°53'0 0.0
2018-Feb-21 00:00N 51°49' E 004°53'0 0.0
2018-Feb-20 23:30N 51°49' E 004°53'0 0.0
2018-Feb-20 23:00N 51°49' E 004°53'0 0.0
2018-Feb-20 22:30N 51°49' E 004°53'0 0.0
2018-Feb-20 22:00N 51°49' E 004°53'0 0.0
2018-Feb-20 21:30N 51°49' E 004°53'0 0.0
2018-Feb-20 20:57N 51°49' E 004°53'0 0.0
2018-Feb-20 20:30N 51°49' E 004°53'0 0.0
2018-Feb-20 20:00N 51°49' E 004°53'0 0.0
2018-Feb-20 19:30N 51°49' E 004°53'0 0.0
2018-Feb-20 19:00N 51°49' E 004°53'0 0.9
2018-Feb-20 18:28N 51°49' E 004°52'0 0.1
2018-Feb-20 17:58N 51°49' E 004°52'0 0.9
2018-Feb-20 17:30N 51°49' E 004°53'0 0.0
2018-Feb-20 16:54N 51°49' E 004°53'0 0.0
2018-Feb-20 16:30N 51°49' E 004°53'0 0.0
2018-Feb-20 15:57N 51°49' E 004°53'0 0.0
2018-Feb-20 15:30N 51°49' E 004°53'0 0.0
2018-Feb-20 15:00N 51°49' E 004°53'0 0.0
2018-Feb-20 14:27N 51°49' E 004°53'0 0.0
2018-Feb-20 14:00N 51°49' E 004°53'0 0.0
2018-Feb-20 13:30N 51°49' E 004°53'0 0.8
2018-Feb-20 12:59N 51°49' E 004°52'0 0.0
2018-Feb-20 12:29N 51°49' E 004°52'0 0.0
2018-Feb-20 11:59N 51°49' E 004°52'0 0.6
2018-Feb-20 11:26N 51°49' E 004°51'0 0.6
2018-Feb-20 11:00N 51°49' E 004°52'1 0.9
2018-Feb-20 10:25N 51°49' E 004°53'0 0.0
2018-Feb-20 09:58N 51°49' E 004°53'0 0.0
2018-Feb-20 09:28N 51°49' E 004°53'0 0.0
2018-Feb-20 08:58N 51°49' E 004°53'0 0.0
2018-Feb-20 08:28N 51°49' E 004°53'0 0.0
2018-Feb-20 07:58N 51°49' E 004°53'0 0.0
2018-Feb-20 07:28N 51°49' E 004°53'0 0.0
2018-Feb-20 06:55N 51°49' E 004°53'0 0.0
2018-Feb-20 06:28N 51°49' E 004°53'0 0.0
2018-Feb-20 05:55N 51°49' E 004°53'0 0.0
2018-Feb-20 05:25N 51°49' E 004°53'0 0.0
2018-Feb-20 04:58N 51°49' E 004°53'0 0.0
2018-Feb-20 04:28N 51°49' E 004°53'0 0.0
2018-Feb-20 03:58N 51°49' E 004°53'0 0.0
2018-Feb-20 03:28N 51°49' E 004°53'0 0.0
2018-Feb-20 02:58N 51°49' E 004°53'0 0.0
2018-Feb-20 02:25N 51°49' E 004°53'0 0.0
2018-Feb-20 01:58N 51°49' E 004°53'0 0.0
2018-Feb-20 01:28N 51°49' E 004°53'0 0.0
2018-Feb-20 00:58N 51°49' E 004°53'0 0.0
2018-Feb-20 00:28N 51°49' E 004°53'0 0.0
2018-Feb-19 23:58N 51°49' E 004°53'0 0.0
2018-Feb-19 23:25N 51°49' E 004°53'0 0.0
2018-Feb-19 22:58N 51°49' E 004°53'0 0.0
2018-Feb-19 22:28N 51°49' E 004°53'0 0.0
2018-Feb-19 21:58N 51°49' E 004°53'0 0.0
2018-Feb-19 21:25N 51°49' E 004°53'0 0.0
2018-Feb-19 20:58N 51°49' E 004°53'0 0.0
2018-Feb-19 20:28N 51°49' E 004°53'0 0.0
2018-Feb-19 19:58N 51°49' E 004°53'0 0.0
2018-Feb-19 19:28N 51°49' E 004°53'0 0.0
2018-Feb-19 18:58N 51°49' E 004°53'0 0.0
2018-Feb-19 18:28N 51°49' E 004°53'0 0.0
2018-Feb-19 17:58N 51°49' E 004°53'0 0.0
2018-Feb-19 17:28N 51°49' E 004°53'0 0.0
2018-Feb-19 16:52N 51°49' E 004°53'0 0.0
2018-Feb-19 16:28N 51°49' E 004°53'0 0.0
2018-Feb-19 15:58N 51°49' E 004°53'0 0.0
2018-Feb-19 15:28N 51°49' E 004°53'0 0.0
2018-Feb-19 14:58N 51°49' E 004°53'0 0.0
2018-Feb-19 14:28N 51°49' E 004°53'0 0.0
2018-Feb-19 13:58N 51°49' E 004°53'0 0.0
2018-Feb-19 13:28N 51°49' E 004°53'0 0.0
2018-Feb-19 12:58N 51°49' E 004°53'0 0.0
2018-Feb-19 12:28N 51°49' E 004°53'0 0.0
2018-Feb-19 11:58N 51°49' E 004°53'0 0.0
2018-Feb-19 11:28N 51°49' E 004°53'0 0.0
2018-Feb-19 10:58N 51°49' E 004°53'0 0.0
2018-Feb-19 10:28N 51°49' E 004°53'0 0.0
2018-Feb-19 09:55N 51°49' E 004°53'0 0.0
2018-Feb-19 09:28N 51°49' E 004°53'0 0.0
2018-Feb-19 08:58N 51°49' E 004°53'0 0.0
2018-Feb-19 08:25N 51°49' E 004°53'0 0.0
2018-Feb-19 07:58N 51°49' E 004°53'0 0.0
2018-Feb-19 07:28N 51°49' E 004°53'0 0.0
2018-Feb-19 06:55N 51°49' E 004°53'0 0.0
2018-Feb-19 06:25N 51°49' E 004°53'0 0.0
2018-Feb-19 05:58N 51°49' E 004°53'0 0.0
2018-Feb-19 05:25N 51°49' E 004°53'0 0.0
2018-Feb-19 04:58N 51°49' E 004°53'0 0.0
2018-Feb-19 04:28N 51°49' E 004°53'0 0.0
2018-Feb-19 03:58N 51°49' E 004°53'0 0.0
2018-Feb-19 03:28N 51°49' E 004°53'0 0.0
2018-Feb-19 02:58N 51°49' E 004°53'0 0.0
2018-Feb-19 02:28N 51°49' E 004°53'0 0.0
2018-Feb-19 01:58N 51°49' E 004°53'0 0.0
2018-Feb-19 01:28N 51°49' E 004°53'0 0.0
2018-Feb-19 00:58N 51°49' E 004°53'0 0.0
2018-Feb-19 00:22N 51°49' E 004°53'0 0.0
2018-Feb-18 23:58N 51°49' E 004°53'0 0.0
2018-Feb-18 23:28N 51°49' E 004°53'0 0.0
2018-Feb-18 22:55N 51°49' E 004°53'0 0.0
2018-Feb-18 22:28N 51°49' E 004°53'0 0.0
2018-Feb-18 21:58N 51°49' E 004°53'0 0.0
2018-Feb-18 21:28N 51°49' E 004°53'0 0.0
2018-Feb-18 20:58N 51°49' E 004°53'0 0.0
2018-Feb-18 20:28N 51°49' E 004°53'0 0.0
2018-Feb-18 19:58N 51°49' E 004°53'0 0.0
2018-Feb-18 19:28N 51°49' E 004°53'0 0.0
2018-Feb-18 18:58N 51°49' E 004°53'0 0.0
2018-Feb-18 18:28N 51°49' E 004°53'0 0.0
2018-Feb-18 17:58N 51°49' E 004°53'0 0.0
2018-Feb-18 17:28N 51°49' E 004°53'0 0.0
2018-Feb-18 16:58N 51°49' E 004°53'0 0.0
2018-Feb-18 16:25N 51°49' E 004°53'0 0.0
2018-Feb-18 15:58N 51°49' E 004°53'0 0.0
2018-Feb-18 15:28N 51°49' E 004°53'0 0.0
2018-Feb-18 14:58N 51°49' E 004°53'0 0.0
2018-Feb-18 14:28N 51°49' E 004°53'0 0.0
2018-Feb-18 13:58N 51°49' E 004°53'0 0.0
2018-Feb-18 13:28N 51°49' E 004°53'0 0.0
2018-Feb-18 12:58N 51°49' E 004°53'0 0.0
2018-Feb-18 12:28N 51°49' E 004°53'0 0.0
2018-Feb-18 11:52N 51°49' E 004°53'0 0.0
2018-Feb-18 11:28N 51°49' E 004°53'0 0.0
2018-Feb-18 10:58N 51°49' E 004°53'0 0.0
2018-Feb-18 10:28N 51°49' E 004°53'0 0.0
2018-Feb-18 09:58N 51°49' E 004°53'0 0.0
2018-Feb-18 09:28N 51°49' E 004°53'0 0.0
2018-Feb-18 08:58N 51°49' E 004°53'0 0.0
2018-Feb-18 08:28N 51°49' E 004°53'0 0.0
2018-Feb-18 07:58N 51°49' E 004°53'0 0.0
2018-Feb-18 07:25N 51°49' E 004°53'0 0.0
2018-Feb-18 06:58N 51°49' E 004°53'0 0.0
2018-Feb-18 06:28N 51°49' E 004°53'0 0.0
2018-Feb-18 05:58N 51°49' E 004°53'0 0.0
2018-Feb-18 05:28N 51°49' E 004°53'0 0.0
2018-Feb-18 04:58N 51°49' E 004°53'0 0.0
2018-Feb-18 04:28N 51°49' E 004°53'0 0.0
2018-Feb-18 03:58N 51°49' E 004°53'0 0.0
2018-Feb-18 03:25N 51°49' E 004°53'0 0.0
2018-Feb-18 02:58N 51°49' E 004°53'0 0.0
2018-Feb-18 02:28N 51°49' E 004°53'0 0.0
2018-Feb-18 01:58N 51°49' E 004°53'0 0.0
2018-Feb-18 01:28N 51°49' E 004°53'0 0.0
2018-Feb-18 00:58N 51°49' E 004°53'0 0.0
2018-Feb-18 00:28N 51°49' E 004°53'0 0.0
2018-Feb-17 23:58N 51°49' E 004°53'0 0.0
2018-Feb-17 23:28N 51°49' E 004°53'0 0.0
2018-Feb-17 22:58N 51°49' E 004°53'0 0.0
2018-Feb-17 22:28N 51°49' E 004°53'0 0.0
2018-Feb-17 21:58N 51°49' E 004°53'0 0.0
2018-Feb-17 21:28N 51°49' E 004°53'0 0.0
2018-Feb-17 20:58N 51°49' E 004°53'0 0.0
2018-Feb-17 20:28N 51°49' E 004°53'0 0.0
2018-Feb-17 19:58N 51°49' E 004°53'0 0.0
2018-Feb-17 19:28N 51°49' E 004°53'0 0.0
2018-Feb-17 18:58N 51°49' E 004°53'0 0.0
2018-Feb-17 18:22N 51°49' E 004°53'0 0.0
2018-Feb-17 17:58N 51°49' E 004°53'0 0.0
2018-Feb-17 17:28N 51°49' E 004°53'0 0.0
2018-Feb-17 16:58N 51°49' E 004°53'0 0.0
2018-Feb-17 16:28N 51°49' E 004°53'0 0.0
2018-Feb-17 15:58N 51°49' E 004°53'0 0.0
2018-Feb-17 15:28N 51°49' E 004°53'0 0.0
2018-Feb-17 14:58N 51°49' E 004°53'0 0.0
2018-Feb-17 14:25N 51°49' E 004°53'0 0.0
2018-Feb-17 13:58N 51°49' E 004°53'0 0.0
2018-Feb-17 13:28N 51°49' E 004°53'0 0.0
2018-Feb-17 12:58N 51°49' E 004°53'0 0.0
2018-Feb-17 12:28N 51°49' E 004°53'0 0.0
2018-Feb-17 11:58N 51°49' E 004°53'0 0.0
2018-Feb-17 11:28N 51°49' E 004°53'0 0.0
2018-Feb-17 10:58N 51°49' E 004°53'0 0.0
2018-Feb-17 10:22N 51°49' E 004°53'0 0.0
2018-Feb-17 09:58N 51°49' E 004°53'0 0.0
2018-Feb-17 09:28N 51°49' E 004°53'0 0.0
2018-Feb-17 08:58N 51°49' E 004°53'0 0.0
2018-Feb-17 08:28N 51°49' E 004°53'0 0.0
2018-Feb-17 07:58N 51°49' E 004°53'0 0.0
2018-Feb-17 07:28N 51°49' E 004°53'0 0.0
2018-Feb-17 06:58N 51°49' E 004°53'0 0.0
2018-Feb-17 06:28N 51°49' E 004°53'0 0.0
2018-Feb-17 05:58N 51°49' E 004°53'0 0.0
2018-Feb-17 05:28N 51°49' E 004°53'0 0.0
2018-Feb-17 04:58N 51°49' E 004°53'0 0.0
2018-Feb-17 04:28N 51°49' E 004°53'0 0.0
2018-Feb-17 03:58N 51°49' E 004°53'0 0.0
2018-Feb-17 03:28N 51°49' E 004°53'0 0.0
2018-Feb-17 02:58N 51°49' E 004°53'0 0.0
2018-Feb-17 02:28N 51°49' E 004°53'0 0.0
2018-Feb-17 01:58N 51°49' E 004°53'0 0.0
2018-Feb-17 01:28N 51°49' E 004°53'0 0.0
2018-Feb-17 00:58N 51°49' E 004°53'0 0.0
2018-Feb-17 00:28N 51°49' E 004°53'0 0.0
2018-Feb-16 23:58N 51°49' E 004°53'0 0.0
2018-Feb-16 23:28N 51°49' E 004°53'0 0.0
2018-Feb-16 22:58N 51°49' E 004°53'0 0.0
2018-Feb-16 22:28N 51°49' E 004°53'0 0.0
2018-Feb-16 21:58N 51°49' E 004°53'0 0.0
2018-Feb-16 21:28N 51°49' E 004°53'0 0.0
2018-Feb-16 20:58N 51°49' E 004°53'0 0.0
2018-Feb-16 20:28N 51°49' E 004°53'0 0.0
2018-Feb-16 19:58N 51°49' E 004°53'0 0.0
2018-Feb-16 19:28N 51°49' E 004°53'0 0.0
2018-Feb-16 18:58N 51°49' E 004°53'0 0.0
2018-Feb-16 18:28N 51°49' E 004°53'0 0.0
2018-Feb-16 17:55N 51°49' E 004°53'0 0.0
2018-Feb-16 17:25N 51°49' E 004°53'0 0.0
2018-Feb-16 16:58N 51°49' E 004°53'0 0.0
2018-Feb-16 16:22N 51°49' E 004°53'0 0.0
2018-Feb-16 15:58N 51°49' E 004°53'0 0.0
2018-Feb-16 15:28N 51°49' E 004°53'0 0.0
2018-Feb-16 14:58N 51°49' E 004°53'0 0.0
2018-Feb-16 14:28N 51°49' E 004°53'0 0.0
2018-Feb-16 13:58N 51°49' E 004°53'0 0.0
2018-Feb-16 13:28N 51°49' E 004°53'0 0.0
2018-Feb-16 12:58N 51°49' E 004°53'0 0.0
2018-Feb-16 12:25N 51°49' E 004°53'0 0.0
2018-Feb-16 11:58N 51°49' E 004°53'0 0.0
2018-Feb-16 11:28N 51°49' E 004°53'0 0.0
2018-Feb-16 10:58N 51°49' E 004°53'0 0.0
2018-Feb-16 10:28N 51°49' E 004°53'0 0.0
2018-Feb-16 09:58N 51°49' E 004°53'0 0.0
2018-Feb-16 09:25N 51°49' E 004°53'0 0.0
2018-Feb-16 08:58N 51°49' E 004°53'0 0.0
2018-Feb-16 08:28N 51°49' E 004°53'0 0.0
2018-Feb-16 07:58N 51°49' E 004°53'0 0.0
2018-Feb-16 07:25N 51°49' E 004°53'0 0.0
2018-Feb-16 06:58N 51°49' E 004°53'0 0.0
2018-Feb-16 06:28N 51°49' E 004°53'0 0.0
2018-Feb-16 05:58N 51°49' E 004°53'0 0.0
2018-Feb-16 05:28N 51°49' E 004°53'0 0.0
2018-Feb-16 04:55N 51°49' E 004°53'0 0.0
2018-Feb-16 04:25N 51°49' E 004°53'0 0.0
2018-Feb-16 03:58N 51°49' E 004°53'0 0.0
2018-Feb-16 03:28N 51°49' E 004°53'0 0.0
2018-Feb-16 02:55N 51°49' E 004°53'0 0.0
2018-Feb-16 02:28N 51°49' E 004°53'0 0.0
2018-Feb-16 01:58N 51°49' E 004°53'0 0.0
2018-Feb-16 01:28N 51°49' E 004°53'0 0.0
2018-Feb-16 00:58N 51°49' E 004°53'0 0.0
2018-Feb-16 00:22N 51°49' E 004°53'0 0.0
2018-Feb-15 23:58N 51°49' E 004°53'0 0.0
2018-Feb-15 23:28N 51°49' E 004°53'0 0.0
2018-Feb-15 22:58N 51°49' E 004°53'0 0.0
2018-Feb-15 22:25N 51°49' E 004°53'0 0.0
2018-Feb-15 21:58N 51°49' E 004°53'0 0.0
2018-Feb-15 21:25N 51°49' E 004°53'0 0.0
2018-Feb-15 20:58N 51°49' E 004°53'0 0.0
2018-Feb-15 20:25N 51°49' E 004°53'0 0.0
2018-Feb-15 19:58N 51°49' E 004°53'0 0.0
2018-Feb-15 19:28N 51°49' E 004°53'0 0.0
2018-Feb-15 18:58N 51°49' E 004°53'0 0.0
2018-Feb-15 18:28N 51°49' E 004°53'0 0.0
2018-Feb-15 17:58N 51°49' E 004°53'0 0.0
2018-Feb-15 17:25N 51°49' E 004°53'0 0.0
2018-Feb-15 16:55N 51°49' E 004°53'0 0.0
2018-Feb-15 16:28N 51°49' E 004°53'0 0.0
2018-Feb-15 15:58N 51°49' E 004°53'0 0.0
2018-Feb-15 15:28N 51°49' E 004°53'0 0.0
2018-Feb-15 14:58N 51°49' E 004°53'0 0.0
2018-Feb-15 14:28N 51°49' E 004°53'0 0.0
2018-Feb-15 13:52N 51°49' E 004°53'0 0.0
2018-Feb-15 13:25N 51°49' E 004°53'0 0.0
2018-Feb-15 12:58N 51°49' E 004°53'0 0.0
2018-Feb-15 12:28N 51°49' E 004°53'0 0.0
2018-Feb-15 11:58N 51°49' E 004°53'0 0.0
2018-Feb-15 11:28N 51°49' E 004°53'0 0.0
2018-Feb-15 10:58N 51°49' E 004°53'0 0.0
2018-Feb-15 10:25N 51°49' E 004°53'0 0.0
2018-Feb-15 09:58N 51°49' E 004°53'0 0.0
2018-Feb-15 09:28N 51°49' E 004°53'0 0.0
2018-Feb-15 08:55N 51°49' E 004°53'0 0.0
2018-Feb-15 08:28N 51°49' E 004°53'0 0.0
2018-Feb-15 07:58N 51°49' E 004°53'0 0.0
2018-Feb-15 07:25N 51°49' E 004°53'0 0.0
2018-Feb-15 06:55N 51°49' E 004°53'0 0.0
2018-Feb-15 06:25N 51°49' E 004°53'0 0.0
2018-Feb-15 05:55N 51°49' E 004°53'0 0.0
2018-Feb-15 05:28N 51°49' E 004°53'0 0.0
2018-Feb-15 04:58N 51°49' E 004°53'0 0.0
2018-Feb-15 04:25N 51°49' E 004°53'0 0.0
2018-Feb-15 03:55N 51°49' E 004°53'0 0.0
2018-Feb-15 03:31N 51°49' E 004°53'0 0.0
2018-Feb-15 02:58N 51°49' E 004°53'0 0.0
2018-Feb-15 02:31N 51°49' E 004°53'0 0.0
2018-Feb-15 01:58N 51°49' E 004°53'0 0.0
2018-Feb-15 01:28N 51°49' E 004°53'0 0.0
2018-Feb-15 00:58N 51°49' E 004°53'0 0.0
2018-Feb-15 00:28N 51°49' E 004°53'0 0.0
2018-Feb-14 23:58N 51°49' E 004°53'0 0.0
2018-Feb-14 23:28N 51°49' E 004°53'0 0.0
2018-Feb-14 22:58N 51°49' E 004°53'0 0.0
2018-Feb-14 22:28N 51°49' E 004°53'0 0.0
2018-Feb-14 21:58N 51°49' E 004°53'0 0.0
2018-Feb-14 21:28N 51°49' E 004°53'0 0.0
2018-Feb-14 20:58N 51°49' E 004°53'0 0.0
2018-Feb-14 20:31N 51°49' E 004°53'0 0.0
2018-Feb-14 19:58N 51°49' E 004°53'0 0.0
2018-Feb-14 19:28N 51°49' E 004°53'0 0.0
2018-Feb-14 18:55N 51°49' E 004°53'0 0.0
2018-Feb-14 18:28N 51°49' E 004°53'0 0.0
2018-Feb-14 17:58N 51°49' E 004°53'0 0.0
2018-Feb-14 17:25N 51°49' E 004°53'0 0.0
2018-Feb-14 16:58N 51°49' E 004°53'0 0.0
2018-Feb-14 16:28N 51°49' E 004°53'0 0.0
2018-Feb-14 16:01N 51°49' E 004°53'0 0.0
2018-Feb-14 15:31N 51°49' E 004°53'0 0.0
2018-Feb-14 15:01N 51°49' E 004°53'0 0.0
2018-Feb-14 14:31N 51°49' E 004°53'0 0.0
2018-Feb-14 14:01N 51°49' E 004°53'0 0.0
2018-Feb-14 13:31N 51°49' E 004°53'0 0.0
2018-Feb-14 12:58N 51°49' E 004°53'0 0.0
2018-Feb-14 12:31N 51°49' E 004°53'0 0.0
2018-Feb-14 11:58N 51°49' E 004°53'0 0.0
2018-Feb-14 11:31N 51°49' E 004°53'0 0.0
2018-Feb-14 11:01N 51°49' E 004°53'0 0.0
2018-Feb-14 10:31N 51°49' E 004°53'0 0.0
2018-Feb-14 10:01N 51°49' E 004°53'0 0.0
2018-Feb-14 09:28N 51°49' E 004°53'0 0.0
2018-Feb-14 09:01N 51°49' E 004°53'0 0.0
2018-Feb-14 08:28N 51°49' E 004°53'0 0.0
2018-Feb-14 08:01N 51°49' E 004°53'0 0.0
2018-Feb-14 07:31N 51°49' E 004°53'0 0.0
2018-Feb-14 07:01N 51°49' E 004°53'0 0.0
2018-Feb-14 06:31N 51°49' E 004°53'0 0.0
2018-Feb-14 06:01N 51°49' E 004°53'0 0.0
2018-Feb-14 05:28N 51°49' E 004°53'0 0.0
2018-Feb-14 05:01N 51°49' E 004°53'0 0.0
2018-Feb-14 04:28N 51°49' E 004°53'0 0.0
2018-Feb-14 03:58N 51°49' E 004°53'0 0.0
2018-Feb-14 03:31N 51°49' E 004°53'0 0.0
2018-Feb-14 02:58N 51°49' E 004°53'0 0.0
2018-Feb-14 02:31N 51°49' E 004°53'0 0.0
2018-Feb-14 01:55N 51°49' E 004°53'0 0.0
2018-Feb-14 01:31N 51°49' E 004°53'0 0.0
2018-Feb-14 00:55N 51°49' E 004°53'0 0.0
2018-Feb-14 00:31N 51°49' E 004°53'0 0.0
2018-Feb-14 00:00N 51°49' E 004°53'0 0.0
2018-Feb-13 23:30N 51°49' E 004°53'0 0.0
2018-Feb-13 23:01N 51°49' E 004°53'0 0.0
2018-Feb-13 22:31N 51°49' E 004°53'0 0.0
2018-Feb-13 22:01N 51°49' E 004°53'0 0.0
2018-Feb-13 21:30N 51°49' E 004°53'0 0.0
2018-Feb-13 21:00N 51°49' E 004°53'0 0.0
2018-Feb-13 20:30N 51°49' E 004°53'0 0.0
2018-Feb-13 20:01N 51°49' E 004°53'0 0.0
2018-Feb-13 19:31N 51°49' E 004°53'0 0.0
2018-Feb-13 19:01N 51°49' E 004°53'0 0.0
2018-Feb-13 18:30N 51°49' E 004°53'0 0.0
2018-Feb-13 17:58N 51°49' E 004°53'0 0.0
2018-Feb-13 17:27N 51°49' E 004°53'0 0.0
2018-Feb-13 16:58N 51°49' E 004°53'0 0.0
2018-Feb-13 16:30N 51°49' E 004°53'0 0.0
2018-Feb-13 15:58N 51°49' E 004°53'0 0.0
2018-Feb-13 15:30N 51°49' E 004°53'0 0.0
2018-Feb-13 15:01N 51°49' E 004°53'0 0.0
2018-Feb-13 14:30N 51°49' E 004°53'0 0.0
2018-Feb-13 13:57N 51°49' E 004°53'0 0.0
2018-Feb-13 13:30N 51°49' E 004°53'0 0.0
2018-Feb-13 13:00N 51°49' E 004°53'0 0.0
2018-Feb-13 12:30N 51°49' E 004°53'0 0.0
2018-Feb-13 12:00N 51°49' E 004°53'0 0.0
2018-Feb-13 11:30N 51°49' E 004°53'0 0.0
2018-Feb-13 10:57N 51°49' E 004°53'0 0.0
2018-Feb-13 10:31N 51°49' E 004°53'0 0.0
2018-Feb-13 10:01N 51°49' E 004°53'0 0.0
2018-Feb-13 09:31N 51°49' E 004°53'0 0.0
2018-Feb-13 09:00N 51°49' E 004°53'0 0.0
2018-Feb-13 08:30N 51°49' E 004°53'0 0.0
2018-Feb-13 08:00N 51°49' E 004°53'0 0.0
2018-Feb-13 07:27N 51°49' E 004°53'0 0.0
2018-Feb-13 06:57N 51°49' E 004°53'0 0.0
2018-Feb-13 06:30N 51°49' E 004°53'  

Dump ship's entire track history